Time;durP1;ratioP1;P1;durP2;ratioP2;P2;SDS_P1;SDS_P2;PMS_P1;PMS_P2;Temp;Humidity;BMP_temperature;BMP_pressure;BME280_temperature;BME280_humidity;BME280_pressure;Samples;Min_cycle;Max_cycle;Signal;HPM_P1;HPM_P2
2024/01/26 00:00:16;;;;;;;10.20;6.73;;;;;;;;;;5052483;28;20205;-90
2024/01/26 00:02:44;;;;;;;13.33;9.30;;;;;;;;;;5052665;28;20817;-91
2024/01/26 00:05:11;;;;;;;17.40;8.73;;;;;;;;;;5051878;28;20195;-91
2024/01/26 00:07:42;;;;;;;14.37;7.40;;;;;;;;;;5053598;28;20833;-91
2024/01/26 00:10:11;;;;;;;13.57;8.17;;;;;;;;;;5056566;28;20209;-91
2024/01/26 00:12:38;;;;;;;15.20;8.37;;;;;;;;;;5055439;28;20222;-91
2024/01/26 00:15:05;;;;;;;14.10;8.27;;;;;;;;;;5056617;28;20411;-91
2024/01/26 00:17:32;;;;;;;15.97;8.43;;;;;;;;;;5055013;28;20230;-91
2024/01/26 00:19:59;;;;;;;13.47;8.33;;;;;;;;;;5056713;28;20206;-91
2024/01/26 00:22:26;;;;;;;12.57;8.60;;;;;;;;;;5056190;28;20240;-91
2024/01/26 00:24:53;;;;;;;13.10;9.00;;;;;;;;;;5053165;28;20642;-91
2024/01/26 00:27:22;;;;;;;16.00;8.63;;;;;;;;;;5052845;28;20226;-91
2024/01/26 00:29:49;;;;;;;13.83;9.13;;;;;;;;;;5056508;28;20579;-92
2024/01/26 00:32:16;;;;;;;12.47;8.97;;;;;;;;;;5056350;28;20234;-91
2024/01/26 00:34:43;;;;;;;10.90;7.53;;;;;;;;;;5053485;28;20218;-91
2024/01/26 00:37:10;;;;;;;12.03;7.80;;;;;;;;;;5056756;28;20260;-91
2024/01/26 00:39:37;;;;;;;10.50;7.20;;;;;;;;;;5056412;28;20820;-91
2024/01/26 00:42:04;;;;;;;13.83;8.17;;;;;;;;;;5055848;28;20229;-91
2024/01/26 00:44:32;;;;;;;11.07;7.50;;;;;;;;;;5056402;28;20210;-91
2024/01/26 00:46:59;;;;;;;10.47;6.63;;;;;;;;;;5055816;28;20226;-91
2024/01/26 00:49:26;;;;;;;9.83;6.73;;;;;;;;;;5056388;28;20206;-91
2024/01/26 00:51:53;;;;;;;9.97;6.63;;;;;;;;;;5055822;28;20275;-91
2024/01/26 00:54:20;;;;;;;12.17;7.33;;;;;;;;;;5056190;28;20202;-91
2024/01/26 00:56:47;;;;;;;10.27;7.07;;;;;;;;;;5055444;28;20719;-91
2024/01/26 00:59:14;;;;;;;9.93;7.27;;;;;;;;;;5056135;28;20255;-91
2024/01/26 01:01:47;;;;;;;12.57;7.73;;;;;;;;;;5055911;28;20240;-92
2024/01/26 01:04:14;;;;;;;10.83;7.50;;;;;;;;;;5056079;28;20206;-91
2024/01/26 01:06:41;;;;;;;10.97;7.23;;;;;;;;;;5055525;28;20280;-91
2024/01/26 01:09:09;;;;;;;16.27;7.50;;;;;;;;;;5056658;28;20236;-92
2024/01/26 01:11:36;;;;;;;11.57;7.37;;;;;;;;;;5056110;28;20233;-92
2024/01/26 01:14:04;;;;;;;14.07;7.97;;;;;;;;;;5057588;28;20206;-91
2024/01/26 01:16:32;;;;;;;11.90;8.00;;;;;;;;;;5054785;28;20313;-91
2024/01/26 01:19:00;;;;;;;10.87;7.00;;;;;;;;;;5051075;28;20253;-91
2024/01/26 01:21:27;;;;;;;11.83;7.43;;;;;;;;;;5054281;28;20226;-91
2024/01/26 01:23:54;;;;;;;12.20;8.13;;;;;;;;;;5050071;28;20248;-91
2024/01/26 01:26:21;;;;;;;12.87;8.13;;;;;;;;;;5054819;28;20230;-91
2024/01/26 01:28:48;;;;;;;13.37;7.97;;;;;;;;;;5052628;28;20736;-91
2024/01/26 01:31:15;;;;;;;15.27;9.13;;;;;;;;;;5054982;28;20226;-91
2024/01/26 01:33:42;;;;;;;11.87;7.83;;;;;;;;;;5055401;28;20234;-91
2024/01/26 01:36:10;;;;;;;12.43;7.93;;;;;;;;;;5054814;28;20233;-91
2024/01/26 01:38:37;;;;;;;15.27;8.60;;;;;;;;;;5050192;28;20234;-92
2024/01/26 01:41:05;;;;;;;12.83;7.80;;;;;;;;;;5054810;28;20226;-92
2024/01/26 01:43:32;;;;;;;12.47;7.47;;;;;;;;;;5055178;28;20289;-92
2024/01/26 01:45:59;;;;;;;13.83;7.67;;;;;;;;;;5054960;28;20303;-92
2024/01/26 01:48:27;;;;;;;15.60;8.50;;;;;;;;;;5048784;28;20252;-92
2024/01/26 01:50:54;;;;;;;17.13;8.33;;;;;;;;;;5054486;28;20237;-91
2024/01/26 01:53:22;;;;;;;14.20;8.37;;;;;;;;;;5055107;28;20206;-92
2024/01/26 01:55:50;;;;;;;12.17;8.20;;;;;;;;;;5054477;28;20244;-92
2024/01/26 01:58:18;;;;;;;12.90;8.47;;;;;;;;;;5054950;28;20271;-92
2024/01/26 02:00:46;;;;;;;13.37;7.73;;;;;;;;;;5054920;28;20230;-92
2024/01/26 02:03:13;;;;;;;16.23;8.87;;;;;;;;;;5055279;28;20202;-92
2024/01/26 02:05:40;;;;;;;15.37;9.13;;;;;;;;;;5054343;28;20259;-92
2024/01/26 02:08:19;;;;;;;13.00;8.00;;;;;;;;;;5054388;28;20201;-92
2024/01/26 02:10:48;;;;;;;13.73;8.13;;;;;;;;;;5052061;28;20233;-92
2024/01/26 02:13:15;;;;;;;13.20;8.00;;;;;;;;;;5051811;28;20645;-92
2024/01/26 02:15:42;;;;;;;13.03;7.80;;;;;;;;;;5054280;28;20237;-92
2024/01/26 02:18:09;;;;;;;17.97;8.90;;;;;;;;;;5054417;28;20218;-92
2024/01/26 02:20:36;;;;;;;14.10;8.07;;;;;;;;;;5053397;28;20233;-91
2024/01/26 02:23:03;;;;;;;17.40;8.80;;;;;;;;;;5047170;28;20617;-92
2024/01/26 02:25:31;;;;;;;18.27;8.97;;;;;;;;;;5054063;28;20242;-92
2024/01/26 02:27:58;;;;;;;16.77;8.90;;;;;;;;;;5054762;28;20198;-92
2024/01/26 02:30:26;;;;;;;19.50;9.50;;;;;;;;;;5055011;28;20238;-92
2024/01/26 02:32:53;;;;;;;15.00;8.73;;;;;;;;;;5054747;28;20230;-93
2024/01/26 02:35:20;;;;;;;15.50;8.70;;;;;;;;;;5047522;28;20688;-92
2024/01/26 02:37:47;;;;;;;12.40;8.60;;;;;;;;;;5052597;28;20275;-92
2024/01/26 02:40:14;;;;;;;17.87;9.33;;;;;;;;;;5053594;28;20765;-92
2024/01/26 02:42:42;;;;;;;13.73;8.27;;;;;;;;;;5054069;28;20234;-92
2024/01/26 02:45:09;;;;;;;13.63;8.77;;;;;;;;;;5045706;28;20664;-91
2024/01/26 02:47:36;;;;;;;15.33;9.77;;;;;;;;;;5054395;28;20216;-92
2024/01/26 02:50:23;;;;;;;13.30;8.37;;;;;;;;;;5049423;28;20257;-91
2024/01/26 02:52:50;;;;;;;10.57;6.83;;;;;;;;;;5048829;28;20233;-91
2024/01/26 02:55:17;;;;;;;11.90;7.20;;;;;;;;;;5053331;28;20198;-91
2024/01/26 02:57:45;;;;;;;8.97;6.77;;;;;;;;;;5054215;28;20635;-92
2024/01/26 03:00:13;;;;;;;11.63;7.47;;;;;;;;;;5055005;28;20201;-91
2024/01/26 03:02:40;;;;;;;16.87;7.67;;;;;;;;;;5054243;28;20225;-91
2024/01/26 03:05:07;;;;;;;10.90;6.83;;;;;;;;;;5053627;28;20202;-91
2024/01/26 03:07:34;;;;;;;11.27;7.20;;;;;;;;;;5037520;28;20253;-91
2024/01/26 03:10:01;;;;;;;7.30;5.40;;;;;;;;;;5048356;28;20256;-91
2024/01/26 03:12:29;;;;;;;11.83;7.63;;;;;;;;;;5055402;28;20229;-91
2024/01/26 03:14:57;;;;;;;12.23;7.70;;;;;;;;;;5056031;28;20213;-91
2024/01/26 03:17:24;;;;;;;10.30;7.50;;;;;;;;;;5054225;28;20728;-92
2024/01/26 03:19:51;;;;;;;13.23;8.60;;;;;;;;;;5050674;28;20221;-91
2024/01/26 03:22:18;;;;;;;10.30;7.27;;;;;;;;;;5049271;28;20238;-91
2024/01/26 03:24:45;;;;;;;9.40;6.60;;;;;;;;;;5053794;28;20213;-91
2024/01/26 03:27:12;;;;;;;10.77;7.67;;;;;;;;;;5052673;28;20234;-91
2024/01/26 03:29:39;;;;;;;10.20;6.53;;;;;;;;;;5053243;28;20255;-92
2024/01/26 03:32:08;;;;;;;10.33;7.50;;;;;;;;;;5052757;28;20699;-92
2024/01/26 03:34:35;;;;;;;8.03;6.13;;;;;;;;;;5053357;28;20214;-92
2024/01/26 03:37:02;;;;;;;8.23;6.70;;;;;;;;;;5044764;28;20226;-92
2024/01/26 03:39:29;;;;;;;9.30;6.90;;;;;;;;;;5053297;28;20230;-91
2024/01/26 03:41:56;;;;;;;10.77;7.03;;;;;;;;;;5052626;28;20241;-91
2024/01/26 03:44:23;;;;;;;4.43;3.53;;;;;;;;;;5052849;28;20194;-90
2024/01/26 03:46:50;;;;;;;8.77;6.50;;;;;;;;;;5052575;28;20230;-91
2024/01/26 03:49:18;;;;;;;9.43;6.33;;;;;;;;;;5053122;28;20657;-91
2024/01/26 03:51:45;;;;;;;9.60;6.53;;;;;;;;;;5052350;28;20241;-91
2024/01/26 03:54:12;;;;;;;4.07;3.67;;;;;;;;;;5053384;28;20213;-91
2024/01/26 03:56:39;;;;;;;11.23;5.90;;;;;;;;;;5052750;28;20849;-91
2024/01/26 03:59:07;;;;;;;7.53;5.27;;;;;;;;;;5048606;28;20309;-91
2024/01/26 04:01:34;;;;;;;6.73;5.40;;;;;;;;;;5053863;28;20257;-91
2024/01/26 04:04:01;;;;;;;7.87;5.77;;;;;;;;;;5053343;28;20213;-91
2024/01/26 04:06:29;;;;;;;8.93;5.40;;;;;;;;;;5052502;28;20666;-91
2024/01/26 04:08:58;;;;;;;6.20;4.57;;;;;;;;;;5052657;28;20201;-91
2024/01/26 04:11:25;;;;;;;5.70;4.87;;;;;;;;;;5052430;28;20293;-91
2024/01/26 04:13:52;;;;;;;4.67;3.80;;;;;;;;;;5053052;28;20218;-90
2024/01/26 04:16:19;;;;;;;8.10;4.83;;;;;;;;;;5044277;28;20222;-90
2024/01/26 04:18:47;;;;;;;6.43;5.20;;;;;;;;;;5046535;28;20233;-90
2024/01/26 04:21:14;;;;;;;5.60;4.83;;;;;;;;;;5052725;28;20238;-92
2024/01/26 04:23:42;;;;;;;9.33;5.27;;;;;;;;;;5044628;28;20255;-91
2024/01/26 04:26:09;;;;;;;5.03;4.53;;;;;;;;;;5053684;28;20228;-91
2024/01/26 04:28:36;;;;;;;6.00;4.40;;;;;;;;;;5051897;28;20202;-91
2024/01/26 04:31:03;;;;;;;5.33;4.70;;;;;;;;;;5052473;28;20256;-91
2024/01/26 04:33:30;;;;;;;4.87;4.33;;;;;;;;;;5052761;28;20202;-90
2024/01/26 04:35:57;;;;;;;6.83;5.30;;;;;;;;;;5052347;28;20233;-91
2024/01/26 04:38:24;;;;;;;4.53;4.13;;;;;;;;;;5052178;28;20222;-91
2024/01/26 04:40:53;;;;;;;6.67;4.80;;;;;;;;;;5052265;28;20264;-91
2024/01/26 04:43:20;;;;;;;7.50;3.73;;;;;;;;;;5052755;28;20230;-91
2024/01/26 04:45:47;;;;;;;6.17;4.30;;;;;;;;;;5051214;28;20708;-91
2024/01/26 04:48:33;;;;;;;4.80;4.33;;;;;;;;;;5047775;28;20202;-91
2024/01/26 04:51:00;;;;;;;3.43;3.13;;;;;;;;;;5043696;28;20288;-91
2024/01/26 04:53:27;;;;;;;4.40;4.00;;;;;;;;;;5052730;28;20199;-92
2024/01/26 04:55:55;;;;;;;3.53;3.07;;;;;;;;;;5043306;28;20233;-91
2024/01/26 04:58:22;;;;;;;4.87;4.33;;;;;;;;;;5050167;28;20222;-91
2024/01/26 05:00:49;;;;;;;4.47;2.93;;;;;;;;;;5057509;28;20727;-91
2024/01/26 05:03:16;;;;;;;4.10;3.70;;;;;;;;;;5052253;28;20206;-91
2024/01/26 05:05:44;;;;;;;4.73;3.70;;;;;;;;;;5052360;28;20222;-91
2024/01/26 05:08:11;;;;;;;6.97;3.57;;;;;;;;;;5056053;28;20198;-91
2024/01/26 05:10:38;;;;;;;4.10;3.70;;;;;;;;;;5055273;28;20237;-91
2024/01/26 05:13:07;;;;;;;3.97;3.20;;;;;;;;;;5055169;28;20195;-91
2024/01/26 05:15:34;;;;;;;3.93;3.60;;;;;;;;;;5055432;28;20716;-91
2024/01/26 05:18:01;;;;;;;3.87;3.57;;;;;;;;;;5055842;28;20213;-91
2024/01/26 05:20:28;;;;;;;4.27;3.90;;;;;;;;;;5047289;28;20260;-91
2024/01/26 05:22:55;;;;;;;5.13;3.93;;;;;;;;;;5054103;28;20701;-91
2024/01/26 05:25:22;;;;;;;4.10;3.70;;;;;;;;;;5048651;28;20202;-91
2024/01/26 05:27:49;;;;;;;2.40;2.30;;;;;;;;;;5055543;28;20209;-91
2024/01/26 05:30:17;;;;;;;6.20;3.40;;;;;;;;;;5054996;28;20209;-91
2024/01/26 05:32:44;;;;;;;3.10;2.80;;;;;;;;;;5055153;28;20626;-92
2024/01/26 05:35:11;;;;;;;3.73;3.30;;;;;;;;;;5054762;28;20207;-91
2024/01/26 05:37:38;;;;;;;4.07;3.67;;;;;;;;;;5055503;28;20202;-91
2024/01/26 05:40:06;;;;;;;3.10;2.90;;;;;;;;;;5054810;28;20303;-90
2024/01/26 05:42:34;;;;;;;2.77;2.47;;;;;;;;;;5055401;28;20253;-91
2024/01/26 05:45:02;;;;;;;4.80;3.60;;;;;;;;;;5055588;28;20206;-91
2024/01/26 05:47:30;;;;;;;4.03;3.43;;;;;;;;;;5055982;28;20230;-91
2024/01/26 05:49:57;;;;;;;4.43;3.53;;;;;;;;;;5053149;28;20193;-91
2024/01/26 05:52:24;;;;;;;4.10;3.40;;;;;;;;;;5054657;28;20283;-91
2024/01/26 05:54:51;;;;;;;2.97;2.77;;;;;;;;;;5055059;28;20202;-90
2024/01/26 05:57:18;;;;;;;3.23;3.03;;;;;;;;;;5055061;28;20725;-91
2024/01/26 05:59:45;;;;;;;3.07;2.70;;;;;;;;;;5055942;28;20234;-91
2024/01/26 06:02:12;;;;;;;2.40;2.20;;;;;;;;;;5054160;28;20230;-91
2024/01/26 06:04:41;;;;;;;5.17;3.60;;;;;;;;;;5054382;28;20296;-91
2024/01/26 06:07:08;;;;;;;3.03;2.77;;;;;;;;;;5053491;28;20226;-91
2024/01/26 06:09:44;;;;;;;6.13;3.43;;;;;;;;;;5054075;28;20612;-91
2024/01/26 06:12:19;;;;;;;3.07;2.77;;;;;;;;;;5046315;28;20238;-91
2024/01/26 06:14:46;;;;;;;3.47;3.17;;;;;;;;;;5054702;28;20209;-90
2024/01/26 06:17:13;;;;;;;3.90;3.50;;;;;;;;;;5049804;28;20237;-91
2024/01/26 06:19:41;;;;;;;4.43;4.03;;;;;;;;;;5054640;28;20230;-90
2024/01/26 06:22:08;;;;;;;4.63;4.23;;;;;;;;;;5054436;28;20248;-91
2024/01/26 06:24:35;;;;;;;4.23;3.60;;;;;;;;;;5054691;28;20617;-91
2024/01/26 06:27:02;;;;;;;4.07;3.77;;;;;;;;;;5054060;28;20238;-91
2024/01/26 06:29:29;;;;;;;4.70;4.30;;;;;;;;;;5054472;28;20209;-91
2024/01/26 06:31:59;;;;;;;2.87;2.67;;;;;;;;;;5054098;28;20288;-90
2024/01/26 06:34:26;;;;;;;3.67;3.37;;;;;;;;;;5054397;28;20256;-91
2024/01/26 06:36:55;;;;;;;3.10;2.87;;;;;;;;;;5053938;28;20253;-92
2024/01/26 06:39:22;;;;;;;2.70;2.50;;;;;;;;;;5054282;28;20226;-91
2024/01/26 06:41:49;;;;;;;3.57;3.27;;;;;;;;;;5053869;28;20234;-91
2024/01/26 06:44:16;;;;;;;2.47;2.27;;;;;;;;;;5054277;28;20686;-91
2024/01/26 06:46:43;;;;;;;3.70;3.40;;;;;;;;;;5053609;28;20234;-90
2024/01/26 06:49:11;;;;;;;3.23;3.03;;;;;;;;;;5054467;28;20214;-86
2024/01/26 06:51:38;;;;;;;3.47;3.17;;;;;;;;;;5053591;28;20292;-94
2024/01/26 06:54:13;;;;;;;3.13;2.83;;;;;;;;;;5054781;28;20218;-92
2024/01/26 06:56:40;;;;;;;5.37;4.87;;;;;;;;;;5054243;28;20233;-94
2024/01/26 06:59:08;;;;;;;6.37;4.97;;;;;;;;;;5053628;28;20728;-86
2024/01/26 07:01:41;;;;;;;2.00;1.90;;;;;;;;;;5052513;28;20248;-89
2024/01/26 07:04:08;;;;;;;3.57;3.37;;;;;;;;;;5053808;28;20214;-89
2024/01/26 07:06:41;;;;;;;4.47;4.07;;;;;;;;;;5053191;28;20240;-89
2024/01/26 07:09:09;;;;;;;5.77;5.20;;;;;;;;;;5054107;28;20209;-92
2024/01/26 07:11:38;;;;;;;5.03;4.23;;;;;;;;;;5046513;28;20226;-92
2024/01/26 07:14:05;;;;;;;6.73;5.60;;;;;;;;;;5034245;28;20302;-92
2024/01/26 07:16:32;;;;;;;7.73;6.13;;;;;;;;;;5047361;28;20237;-90
2024/01/26 07:18:59;;;;;;;5.57;5.00;;;;;;;;;;5052665;28;20293;-87
2024/01/26 07:21:26;;;;;;;6.90;6.20;;;;;;;;;;5053209;28;20233;-89
2024/01/26 07:23:53;;;;;;;5.80;5.03;;;;;;;;;;5053479;28;20629;-89
2024/01/26 07:26:21;;;;;;;5.70;5.20;;;;;;;;;;5052808;28;20303;-89
2024/01/26 07:28:50;;;;;;;9.43;6.60;;;;;;;;;;5053203;28;20206;-88
2024/01/26 07:31:17;;;;;;;5.83;4.83;;;;;;;;;;5044849;28;20264;-90
2024/01/26 07:33:44;;;;;;;6.17;5.53;;;;;;;;;;5054166;28;20312;-89
2024/01/26 07:36:12;;;;;;;6.13;5.40;;;;;;;;;;5053889;28;20239;-89
2024/01/26 07:38:41;;;;;;;6.40;5.80;;;;;;;;;;5045603;28;20202;-90
2024/01/26 07:41:08;;;;;;;6.30;5.70;;;;;;;;;;5052917;28;20250;-90
2024/01/26 07:43:35;;;;;;;7.10;6.40;;;;;;;;;;5051860;28;20210;-90
2024/01/26 07:46:03;;;;;;;5.93;4.57;;;;;;;;;;5052658;28;20588;-90
2024/01/26 07:48:30;;;;;;;6.43;5.43;;;;;;;;;;5053039;28;20210;-90
2024/01/26 07:50:57;;;;;;;6.13;5.40;;;;;;;;;;5052662;28;20237;-90
2024/01/26 07:53:43;;;;;;;5.90;5.13;;;;;;;;;;5052991;28;20209;-90
2024/01/26 07:56:10;;;;;;;6.63;5.10;;;;;;;;;;5052725;28;20234;-90
2024/01/26 07:58:54;;;;;;;5.27;4.33;;;;;;;;;;5052211;28;20297;-92
2024/01/26 08:01:23;;;;;;;4.83;4.40;;;;;;;;;;5050125;28;20231;-91
2024/01/26 08:03:50;;;;;;;5.83;4.87;;;;;;;;;;5052537;28;20210;-91
2024/01/26 08:06:17;;;;;;;3.90;3.60;;;;;;;;;;5051669;28;20229;-90
2024/01/26 08:08:44;;;;;;;5.20;4.70;;;;;;;;;;5052303;28;20217;-90
2024/01/26 08:11:12;;;;;;;5.23;4.73;;;;;;;;;;5051158;28;20269;-90
2024/01/26 08:13:39;;;;;;;4.50;3.13;;;;;;;;;;5052149;28;20214;-89
2024/01/26 08:16:07;;;;;;;5.27;4.87;;;;;;;;;;5057164;28;20238;-90
2024/01/26 08:18:35;;;;;;;5.33;4.10;;;;;;;;;;5052137;28;20206;-90
2024/01/26 08:21:17;;;;;;;4.63;4.20;;;;;;;;;;5051667;28;20237;-92
2024/01/26 08:23:44;;;;;;;5.30;4.80;;;;;;;;;;5052859;28;20190;-92
2024/01/26 08:26:11;;;;;;;3.87;3.57;;;;;;;;;;5052262;28;20299;-88
2024/01/26 08:28:38;;;;;;;6.03;4.27;;;;;;;;;;5056508;28;20212;-89
2024/01/26 08:31:06;;;;;;;4.27;3.93;;;;;;;;;;5056145;28;20237;-91
2024/01/26 08:33:33;;;;;;;2.93;2.67;;;;;;;;;;5055665;28;20214;-88
2024/01/26 08:36:01;;;;;;;4.80;4.23;;;;;;;;;;5055913;28;20230;-89
2024/01/26 08:38:29;;;;;;;4.37;3.97;;;;;;;;;;5055623;28;20245;-89
2024/01/26 08:40:56;;;;;;;4.47;3.97;;;;;;;;;;5052394;28;20257;-90
2024/01/26 08:43:23;;;;;;;6.33;3.23;;;;;;;;;;5055711;28;20198;-90
2024/01/26 08:45:50;;;;;;;4.17;3.80;;;;;;;;;;5054756;28;20237;-90
2024/01/26 08:48:17;;;;;;;4.17;3.77;;;;;;;;;;5054941;28;20230;-88
2024/01/26 08:50:44;;;;;;;2.60;2.40;;;;;;;;;;5052112;28;20238;-89
2024/01/26 08:53:12;;;;;;;4.10;3.60;;;;;;;;;;5055163;28;20670;-91
2024/01/26 08:55:40;;;;;;;2.73;2.50;;;;;;;;;;5053636;28;20242;-90
2024/01/26 08:58:07;;;;;;;3.00;2.70;;;;;;;;;;5055430;28;20293;-91
2024/01/26 09:00:52;;;;;;;3.20;2.90;;;;;;;;;;5054946;28;20317;-89
2024/01/26 09:03:20;;;;;;;1.50;1.40;;;;;;;;;;5055061;28;20209;-90
2024/01/26 09:05:47;;;;;;;2.67;2.47;;;;;;;;;;5054229;28;20291;-88
2024/01/26 09:08:15;;;;;;;2.87;2.33;;;;;;;;;;5054476;28;20239;-88
2024/01/26 09:10:42;;;;;;;3.50;3.20;;;;;;;;;;5054450;28;20230;-89
2024/01/26 09:13:09;;;;;;;3.90;3.10;;;;;;;;;;5054460;28;20206;-89
2024/01/26 09:15:36;;;;;;;3.43;3.13;;;;;;;;;;5054166;28;20632;-91
2024/01/26 09:18:03;;;;;;;3.30;3.00;;;;;;;;;;5054892;28;20661;-88
2024/01/26 09:20:30;;;;;;;2.27;2.07;;;;;;;;;;5054323;28;20242;-89
2024/01/26 09:22:57;;;;;;;2.53;2.20;;;;;;;;;;5054550;28;20232;-90
2024/01/26 09:25:26;;;;;;;4.13;3.27;;;;;;;;;;5053709;28;20696;-89
2024/01/26 09:27:53;;;;;;;2.30;2.10;;;;;;;;;;5054706;28;20323;-90
2024/01/26 09:30:21;;;;;;;3.73;3.30;;;;;;;;;;5053521;28;20657;-90
2024/01/26 09:32:48;;;;;;;2.87;2.67;;;;;;;;;;5054447;28;20284;-87
2024/01/26 09:35:15;;;;;;;3.40;3.17;;;;;;;;;;5054170;28;20867;-88
2024/01/26 09:37:42;;;;;;;3.97;3.33;;;;;;;;;;5054671;28;20202;-88
2024/01/26 09:40:12;;;;;;;3.20;2.90;;;;;;;;;;5053435;28;20222;-87
2024/01/26 09:42:41;;;;;;;2.63;2.43;;;;;;;;;;5052892;28;20252;-88
2024/01/26 09:45:14;;;;;;;2.90;2.70;;;;;;;;;;5053422;28;20210;-88
2024/01/26 09:48:09;;;;;;;;;;;;;;;;;;;;;
2024/01/26 09:50:40;;;;;;;3.80;3.50;;;;;;;;;;5041615;28;20243;-89
2024/01/26 09:53:07;;;;;;;3.17;2.87;;;;;;;;;;5057190;28;20290;-89
2024/01/26 09:55:34;;;;;;;3.97;3.60;;;;;;;;;;5053645;28;20244;-89
2024/01/26 09:58:02;;;;;;;3.63;3.33;;;;;;;;;;5054608;28;20202;-89
2024/01/26 10:00:39;;;;;;;2.27;2.10;;;;;;;;;;5053940;28;20238;-90
2024/01/26 10:03:06;;;;;;;3.10;2.90;;;;;;;;;;5047859;28;20209;-90
2024/01/26 10:05:33;;;;;;;3.73;2.20;;;;;;;;;;5053783;28;20265;-89
2024/01/26 10:08:00;;;;;;;2.30;2.13;;;;;;;;;;5054117;28;20211;-91
2024/01/26 10:10:27;;;;;;;3.27;2.97;;;;;;;;;;5053625;28;20726;-90
2024/01/26 10:12:54;;;;;;;3.67;2.73;;;;;;;;;;5055349;28;20221;-90
2024/01/26 10:15:22;;;;;;;4.87;3.50;;;;;;;;;;5053868;28;20574;-88
2024/01/26 10:18:05;;;;;;;3.70;3.40;;;;;;;;;;5049453;28;20210;-89
2024/01/26 10:20:38;;;;;;;3.63;3.23;;;;;;;;;;5053189;28;20264;-88
2024/01/26 10:23:05;;;;;;;4.00;2.57;;;;;;;;;;5053831;28;20252;-87
2024/01/26 10:25:32;;;;;;;3.23;2.97;;;;;;;;;;5053118;28;20233;-90
2024/01/26 10:28:03;;;;;;;2.00;1.90;;;;;;;;;;5048598;28;20210;-89
2024/01/26 10:30:31;;;;;;;4.40;2.57;;;;;;;;;;5059512;28;20248;-89
2024/01/26 10:32:59;;;;;;;2.70;2.50;;;;;;;;;;5053925;28;20952;-89
2024/01/26 10:35:27;;;;;;;2.47;2.27;;;;;;;;;;5044706;28;20226;-89
2024/01/26 10:37:54;;;;;;;2.60;2.40;;;;;;;;;;5053988;28;20205;-89
2024/01/26 10:40:22;;;;;;;2.63;2.43;;;;;;;;;;5052631;28;20232;-90
2024/01/26 10:42:49;;;;;;;2.60;2.40;;;;;;;;;;5053700;28;20230;-89
2024/01/26 10:45:16;;;;;;;2.87;2.60;;;;;;;;;;5047511;28;20202;-91
2024/01/26 10:47:45;;;;;;;3.17;2.37;;;;;;;;;;5053945;28;20225;-90
2024/01/26 10:50:12;;;;;;;2.70;2.50;;;;;;;;;;5052841;28;20260;-89
2024/01/26 10:52:40;;;;;;;2.13;2.03;;;;;;;;;;5053076;28;20233;-88
2024/01/26 10:55:07;;;;;;;1.80;1.70;;;;;;;;;;5051249;28;20205;-87
2024/01/26 10:57:37;;;;;;;2.27;1.97;;;;;;;;;;5052402;28;20214;-87
2024/01/26 11:00:06;;;;;;;1.63;1.60;;;;;;;;;;5052371;28;20241;-88
2024/01/26 11:02:34;;;;;;;2.50;2.30;;;;;;;;;;5053019;28;20226;-87
2024/01/26 11:05:03;;;;;;;1.87;1.77;;;;;;;;;;5049453;28;20202;-88
2024/01/26 11:07:32;;;;;;;2.80;2.40;;;;;;;;;;5044652;28;20240;-88
2024/01/26 11:10:01;;;;;;;2.70;2.50;;;;;;;;;;5051465;28;20227;-88
2024/01/26 11:12:29;;;;;;;1.63;1.60;;;;;;;;;;5044162;28;20305;-88
2024/01/26 11:15:09;;;;;;;2.03;1.93;;;;;;;;;;5052858;28;20209;-90
2024/01/26 11:17:43;;;;;;;3.00;2.80;;;;;;;;;;5052519;28;20299;-90
2024/01/26 11:20:15;;;;;;;2.70;2.10;;;;;;;;;;5052085;28;20742;-89
2024/01/26 11:23:02;;;;;;;2.60;2.40;;;;;;;;;;5053028;28;20229;-90
2024/01/26 11:25:34;;;;;;;2.40;2.30;;;;;;;;;;5044452;28;20236;-92
2024/01/26 11:28:02;;;;;;;3.00;2.73;;;;;;;;;;5053290;28;20288;-90
2024/01/26 11:30:29;;;;;;;2.50;2.30;;;;;;;;;;5043779;28;20241;-91
2024/01/26 11:32:56;;;;;;;2.23;2.13;;;;;;;;;;5052804;28;20242;-90
2024/01/26 11:35:25;;;;;;;2.13;2.00;;;;;;;;;;5051485;28;20241;-90
2024/01/26 11:37:53;;;;;;;1.90;1.80;;;;;;;;;;5052426;28;20544;-90
2024/01/26 11:40:20;;;;;;;4.50;2.27;;;;;;;;;;5052745;28;20202;-89
2024/01/26 11:42:48;;;;;;;2.43;2.10;;;;;;;;;;5058962;28;20252;-91
2024/01/26 11:45:22;;;;;;;2.30;2.10;;;;;;;;;;5053594;28;20210;-90
2024/01/26 11:47:49;;;;;;;2.30;2.20;;;;;;;;;;5054926;28;20259;-90
2024/01/26 11:50:21;;;;;;;2.83;2.63;;;;;;;;;;5053501;28;20219;-91
2024/01/26 11:52:49;;;;;;;2.23;2.10;;;;;;;;;;5052887;28;20284;-91
2024/01/26 11:55:16;;;;;;;1.90;1.80;;;;;;;;;;5051755;28;20206;-90
2024/01/26 11:57:43;;;;;;;2.53;2.33;;;;;;;;;;5053191;28;20583;-87
2024/01/26 12:00:12;;;;;;;2.40;2.20;;;;;;;;;;5050546;28;20263;-88
2024/01/26 12:02:39;;;;;;;2.10;2.00;;;;;;;;;;5049804;28;20244;-89
2024/01/26 12:05:07;;;;;;;3.77;1.90;;;;;;;;;;5050767;28;21007;-87
2024/01/26 12:07:34;;;;;;;2.60;2.40;;;;;;;;;;5054037;28;20220;-89
2024/01/26 12:10:02;;;;;;;2.53;2.33;;;;;;;;;;5055518;28;20205;-87
2024/01/26 12:12:30;;;;;;;2.47;1.90;;;;;;;;;;5055378;28;20237;-87
2024/01/26 12:14:57;;;;;;;2.60;2.40;;;;;;;;;;5056693;28;20217;-88
2024/01/26 12:17:24;;;;;;;2.40;2.20;;;;;;;;;;5055504;28;20233;-88
2024/01/26 12:19:51;;;;;;;2.13;2.03;;;;;;;;;;5055725;28;20214;-90
2024/01/26 12:22:18;;;;;;;2.37;2.17;;;;;;;;;;5055386;28;20241;-91
2024/01/26 12:24:45;;;;;;;2.00;1.90;;;;;;;;;;5056681;28;20208;-91
2024/01/26 12:27:14;;;;;;;2.70;2.27;;;;;;;;;;5055188;28;20359;-89
2024/01/26 12:29:46;;;;;;;1.47;1.43;;;;;;;;;;5056439;28;20209;-90
2024/01/26 12:32:14;;;;;;;2.10;2.00;;;;;;;;;;5055719;28;20234;-91
2024/01/26 12:34:42;;;;;;;1.53;1.43;;;;;;;;;;5055685;28;20213;-90
2024/01/26 12:37:11;;;;;;;1.47;1.47;;;;;;;;;;5055206;28;20352;-90
2024/01/26 12:39:38;;;;;;;1.80;1.70;;;;;;;;;;5055339;28;20210;-89
2024/01/26 12:42:06;;;;;;;1.97;1.87;;;;;;;;;;5055718;28;20230;-91
2024/01/26 12:44:36;;;;;;;1.50;1.50;;;;;;;;;;5047699;28;20314;-90
2024/01/26 12:47:04;;;;;;;1.93;1.83;;;;;;;;;;5055348;28;20763;-92
2024/01/26 12:49:31;;;;;;;1.27;1.27;;;;;;;;;;5055429;28;20236;-90
2024/01/26 12:51:59;;;;;;;1.90;1.80;;;;;;;;;;5055324;28;20234;-89
2024/01/26 12:54:26;;;;;;;2.73;1.90;;;;;;;;;;5055766;28;20292;-87
2024/01/26 12:56:53;;;;;;;2.30;2.10;;;;;;;;;;5055664;28;20735;-89
2024/01/26 12:59:20;;;;;;;1.80;1.70;;;;;;;;;;5055558;28;20240;-88
2024/01/26 13:01:48;;;;;;;1.90;1.80;;;;;;;;;;5055150;28;20234;-89
2024/01/26 13:04:15;;;;;;;1.80;1.70;;;;;;;;;;5056588;28;20202;-89
2024/01/26 13:06:42;;;;;;;1.30;1.30;;;;;;;;;;5054596;28;20720;-89
2024/01/26 13:09:10;;;;;;;1.30;1.30;;;;;;;;;;5055070;28;20202;-88
2024/01/26 13:11:37;;;;;;;2.00;1.33;;;;;;;;;;5055166;28;20263;-89
2024/01/26 13:14:06;;;;;;;1.87;1.77;;;;;;;;;;5055344;28;20232;-90
2024/01/26 13:16:33;;;;;;;2.43;1.73;;;;;;;;;;5053498;28;20252;-89
2024/01/26 13:19:02;;;;;;;1.83;1.73;;;;;;;;;;5055125;28;20198;-89
2024/01/26 13:21:29;;;;;;;2.53;2.20;;;;;;;;;;5054549;28;20237;-90
2024/01/26 13:23:57;;;;;;;1.40;1.40;;;;;;;;;;5055471;28;20198;-89
2024/01/26 13:26:24;;;;;;;1.53;1.50;;;;;;;;;;5054921;28;20262;-88
2024/01/26 13:28:51;;;;;;;1.30;1.30;;;;;;;;;;5055534;28;20403;-89
2024/01/26 13:31:18;;;;;;;1.60;1.50;;;;;;;;;;5055070;28;20311;-90
2024/01/26 13:33:45;;;;;;;1.47;1.37;;;;;;;;;;5056331;28;20206;-88
2024/01/26 13:36:14;;;;;;;1.50;1.50;;;;;;;;;;5057195;28;20229;-89
2024/01/26 13:38:41;;;;;;;1.53;1.53;;;;;;;;;;5056260;28;20206;-90
2024/01/26 13:41:08;;;;;;;1.43;1.40;;;;;;;;;;5055203;28;20230;-90
2024/01/26 13:43:35;;;;;;;1.60;1.50;;;;;;;;;;5055095;28;20209;-89
2024/01/26 13:46:02;;;;;;;1.50;1.50;;;;;;;;;;5054213;28;20229;-90
2024/01/26 13:48:29;;;;;;;1.80;1.70;;;;;;;;;;5055224;28;20205;-89
2024/01/26 13:50:59;;;;;;;1.70;1.60;;;;;;;;;;5053806;28;20230;-89
2024/01/26 13:53:27;;;;;;;1.60;1.60;;;;;;;;;;5054240;28;20233;-88
2024/01/26 13:55:56;;;;;;;1.67;1.40;;;;;;;;;;5054063;28;20348;-88
2024/01/26 13:58:23;;;;;;;1.40;1.30;;;;;;;;;;5054550;28;20233;-89
2024/01/26 14:00:50;;;;;;;1.60;1.50;;;;;;;;;;5053778;28;20233;-89
2024/01/26 14:03:18;;;;;;;1.70;1.60;;;;;;;;;;5054635;28;20212;-89
2024/01/26 14:05:45;;;;;;;1.50;1.50;;;;;;;;;;5053572;28;20226;-88
2024/01/26 14:08:13;;;;;;;1.87;1.77;;;;;;;;;;5054117;28;20209;-90
2024/01/26 14:10:42;;;;;;;1.70;1.60;;;;;;;;;;5053028;28;20264;-88
2024/01/26 14:13:09;;;;;;;1.50;1.40;;;;;;;;;;5053880;28;20212;-88
2024/01/26 14:15:36;;;;;;;1.80;1.17;;;;;;;;;;5053335;28;20226;-88
2024/01/26 14:18:04;;;;;;;1.30;1.20;;;;;;;;;;5053921;28;20202;-88
2024/01/26 14:20:33;;;;;;;1.50;1.40;;;;;;;;;;5053028;28;20283;-90
2024/01/26 14:23:00;;;;;;;1.83;1.23;;;;;;;;;;5053673;28;20218;-88
2024/01/26 14:25:27;;;;;;;1.20;1.17;;;;;;;;;;5053134;28;20256;-90
2024/01/26 14:27:56;;;;;;;1.80;1.40;;;;;;;;;;5053571;28;20231;-88
2024/01/26 14:30:23;;;;;;;1.50;1.40;;;;;;;;;;5053461;28;20244;-87
2024/01/26 14:32:52;;;;;;;1.10;1.10;;;;;;;;;;5053457;28;20222;-91
2024/01/26 14:35:20;;;;;;;1.57;1.47;;;;;;;;;;5052874;28;20206;-87
2024/01/26 14:37:47;;;;;;;1.60;1.50;;;;;;;;;;5053513;28;20229;-86
2024/01/26 14:40:16;;;;;;;2.43;1.43;;;;;;;;;;5052622;28;20244;-87
2024/01/26 14:42:44;;;;;;;1.93;1.03;;;;;;;;;;5053234;28;20230;-88
2024/01/26 14:45:12;;;;;;;2.00;1.63;;;;;;;;;;5052777;28;20205;-88